Nome の空港の天気 - METARとTAF

Nome, Nome Airport ( PAOM / OME ) - アメリカ アラスカ州Nome
飛行場実況気象(Metar)
観測時間11/26 23:53 AKST (11/27 08:53 UTC)
風向・風速静穏 0m/s
視程10km以上
天気現象
なし
気温-14.4℃
湿度72%
気圧1038hPa
METARPAOM 270853Z AUTO 00000KT 10SM CLR M14/M18 A3065 RMK AO2 SLP380 T11441183 410391161 51018 TSNO
過去の天気等 Google飛行場航空写真 Wunderground天気予報

過去48時間のMETAR

飛行場予報(TAF)
発表時間: 11/26 20:20 AKST (11/27 05:20 UTC)
予報対象時間: 26日21時 AKST ~ 27日21時 AKST
風向・風速北西 4m/s
視程10km以上
全天の8割程度の雲 雲底高度 3050m
27日1時 AKST から
風向・風速不定 2m/s
視程10km以上
全天の4割程度の雲 雲底高度 3050m
27日15時 AKST から
風向・風速東 4m/s
視程10km以上
全天の4割程度の雲 雲底高度 7620m
PAOM 270520Z 2706/2806 31007KT P6SM BKN100
FM271000 VRB03KT P6SM SCT100
FM280000 08008KT P6SM SCT250